This is the latest recevied weather packets stored in our database for station/object OE-11053. If no packets are shown the sender has not sent any weather packets the latest 10 day(s).
| Time | Temp. | Humidity | Pressure | Rain* | Wind** | Luminosity | Snow |
|---|---|---|---|---|---|---|---|
| 1788683724 | 18.89° C | 56% | 1027.2 hPa | 0 mm | - | 556 W/m² | - |
| 1788683124 | 18.89° C | 56% | 1027.2 hPa | 0 mm | - | 531 W/m² | - |
| 1788682297 | 18.89° C | 57% | 1027.3 hPa | 0 mm | - | 512 W/m² | - |
| 1788680124 | 17.78° C | 63% | 1027 hPa | 0 mm | - | 403 W/m² | - |
| 1788679524 | 16.67° C | 63% | 1027.2 hPa | 0 mm | - | 377 W/m² | - |
| 1788678697 | 16.67° C | 65% | 1026.9 hPa | 0 mm | - | 339 W/m² | - |
| 1788678324 | 16.67° C | 69% | 1027 hPa | 0 mm | - | 307 W/m² | - |
| 1788677724 | 16.11° C | 72% | 1027.1 hPa | 0 mm | - | 269 W/m² | - |
| 1788676897 | 16.11° C | 71% | 1027 hPa | 0 mm | - | 249 W/m² | - |
| 1788676524 | 15° C | 75% | 1027.1 hPa | 0 mm | - | 237 W/m² | - |
| 1788675924 | 14.44° C | 78% | 1027.1 hPa | 0 mm | - | 205 W/m² | - |
| 1788674724 | 12.78° C | 84% | 1027.5 hPa | 0 mm | - | 45 W/m² | - |
| 1788672924 | 11.67° C | 90% | 1027.5 hPa | 0 mm | - | 32 W/m² | - |
| 1788672324 | 11.11° C | 91% | 1027.6 hPa | 0 mm | - | 26 W/m² | - |
| 1788671497 | 11.11° C | 92% | 1027.5 hPa | 0 mm | - | 19 W/m² | - |
| 1788671124 | 11.11° C | 92% | 1027.4 hPa | 0 mm | - | 13 W/m² | - |
| 1788670524 | 11.11° C | 92% | 1027.5 hPa | 0 mm | - | 6 W/m² | - |
| 1788669697 | 11.11° C | 92% | 1027.5 hPa | 0 mm | - | 0 W/m² | - |
| 1788669324 | 11.67° C | 91% | 1027.3 hPa | 0 mm | - | 0 W/m² | - |
| 1788668724 | 11.67° C | 90% | 1027.1 hPa | 0 mm | - | 0 W/m² | - |
| 1788667896 | 11.67° C | 90% | 1026.9 hPa | 0 mm | - | 0 W/m² | - |
| 1788667524 | 11.67° C | 89% | 1026.9 hPa | 0 mm | - | 0 W/m² | - |
| 1788666924 | 11.67° C | 90% | 1026.8 hPa | 0 mm | - | 0 W/m² | - |
| 1788666324 | 11.67° C | 90% | 1026.8 hPa | 0 mm | - | 0 W/m² | - |
| 1788665724 | 12.22° C | 89% | 1026.8 hPa | 0 mm | - | 0 W/m² | - |
* Rain latest hour (hover to see other rain measurements)
** Current wind speed in m/s (hover to see current wind gust speed)